Gould, Oklahoma
Current Conditions -  °F | °C
As of 4:15 AM on Tuesday 21 Oct 2014 (Local Time) from KAXS Reporting Station
Clear Clear  
Wind Chill: 61°   Ceiling: Unl
Heat Index: 61°   Visibility: 10mi
Dew Point: 56°   Wind: 3mph
Humidity: 82%   Direction: 130°SE
Pressure: 30.07"   Gusts: NA
Location:  34.67°N, 99.77°W
Report Text: KAXS 210915Z AUTO 13003KT 10SM CLR 16/13 A3007 RMK AO2 T01620132
Loading
Personal Weather Stations






























Interactive Weather Map
Tropical Storm Tracking
New forecast layout! Learn more

10-Day Weather Forecast

Advertisements
Track Severe Weather on mobile